Terminal Aerodrome Forecast
Issued by NWS Duluth, MN

Home | Current Version | Previous Version | Text Only | Print | Product List | Glossary On
Versions: 1 2 3 4 5 6 7 8 9 10 11 12 13 14 15 16 17
000
FTUS43 KDLH 232300
TAFINL
TAF
KINL 232334Z 2400/2424 01006KT P6SM OVC008
      TEMPO 2400/2404 5SM -SNDZ BR OVC005
     FM240600 34006KT 5SM BR OVC006
     FM241600 35006KT P6SM OVC010=

USA.gov is the U.S. government's official web portal to all federal, state and local government web resources and services.